Time;durP1;ratioP1;P1;durP2;ratioP2;P2;SDS_P1;SDS_P2;PMS_P1;PMS_P2;Temp;Humidity;BMP_temperature;BMP_pressure;BME280_temperature;BME280_humidity;BME280_pressure;Samples;Min_cycle;Max_cycle;Signal;HPM_P1;HPM_P2
2022/01/27 00:00:38;;;;;;;53.23;24.23;;;;;;;0.47;100.00;99636.30;4216970;82;21066;-90
2022/01/27 00:06:40;;;;;;;48.52;23.32;;;;;;;0.42;100.00;99640.41;4228106;82;21134;-89
2022/01/27 00:12:42;;;;;;;47.35;23.32;;;;;;;0.40;100.00;99646.62;4221310;82;21677;-91
2022/01/27 00:18:48;;;;;;;49.77;22.45;;;;;;;0.39;100.00;99642.34;4225216;82;21666;-90
2022/01/27 00:24:49;;;;;;;41.20;20.70;;;;;;;0.37;100.00;99643.98;4224021;82;21042;-90
2022/01/27 00:30:51;;;;;;;39.73;18.77;;;;;;;0.34;100.00;99667.46;4231640;81;21524;-89
2022/01/27 00:36:52;;;;;;;36.40;19.92;;;;;;;0.31;100.00;99676.13;4219991;83;21805;-90
2022/01/27 00:42:54;;;;;;;35.92;19.70;;;;;;;0.29;100.00;99676.95;4221691;83;21070;-88
2022/01/27 00:48:55;;;;;;;34.75;17.80;;;;;;;0.27;100.00;99663.54;4221106;81;21460;-89
2022/01/27 00:54:56;;;;;;;38.20;20.00;;;;;;;0.25;100.00;99664.36;4226003;81;21054;-89
2022/01/27 01:01:02;;;;;;;36.25;20.60;;;;;;;0.25;100.00;99671.88;4219741;82;21561;-89
2022/01/27 01:07:02;;;;;;;33.63;18.30;;;;;;;0.24;100.00;99670.28;4223154;82;21089;-90
2022/01/27 01:37:52;;;;;;;31.65;17.73;;;;;;;0.17;100.00;99648.86;4228003;82;21122;-90
2022/01/27 01:43:54;;;;;;;42.85;22.15;;;;;;;0.16;100.00;99640.54;4225900;82;21118;-89
2022/01/27 01:50:11;;;;;;;38.58;21.10;;;;;;;0.17;100.00;99646.16;4193401;82;21042;-89
2022/01/27 01:56:12;;;;;;;38.45;21.75;;;;;;;0.15;100.00;99648.34;4217974;83;21535;-89
2022/01/27 02:02:13;;;;;;;39.53;21.65;;;;;;;0.13;100.00;99642.44;4230027;82;21058;-89
2022/01/27 02:20:44;;;;;;;45.12;24.05;;;;;;;0.12;100.00;99620.66;4225635;83;21090;-89
2022/01/27 02:26:49;;;;;;;57.35;29.65;;;;;;;-0.02;100.00;99605.79;4226781;83;21712;-87
2022/01/27 02:32:52;;;;;;;55.30;28.50;;;;;;;-0.02;100.00;99605.79;4228345;83;21090;-88
2022/01/27 02:38:55;;;;;;;45.95;24.27;;;;;;;0.07;100.00;99613.45;4162422;83;21999;-89
2022/01/27 02:45:05;;;;;;;41.63;21.70;;;;;;;0.09;100.00;99599.70;4224535;83;21533;-88
2022/01/27 02:51:06;;;;;;;36.50;19.87;;;;;;;0.10;100.00;99597.26;4217036;82;22110;-89
2022/01/27 02:57:08;;;;;;;34.30;18.07;;;;;;;0.11;100.00;99599.66;4220199;82;21089;-89
2022/01/27 03:03:10;;;;;;;35.90;19.48;;;;;;;0.13;100.00;99581.86;4217690;83;21137;-89
2022/01/27 03:09:11;;;;;;;31.40;18.02;;;;;;;0.13;100.00;99589.94;4215383;83;21065;-92
2022/01/27 03:15:13;;;;;;;29.18;17.50;;;;;;;0.13;100.00;99604.75;4219735;82;21660;-89
2022/01/27 03:27:56;;;;;;;28.83;16.15;;;;;;;0.12;100.00;99587.81;4220021;83;21665;-88
2022/01/27 03:33:58;;;;;;;28.10;17.50;;;;;;;0.13;100.00;99585.91;4194129;83;21555;-88
2022/01/27 03:39:59;;;;;;;31.80;16.95;;;;;;;0.14;100.00;99582.95;4179921;82;21578;-88
2022/01/27 03:46:02;;;;;;;27.42;15.88;;;;;;;0.14;100.00;99561.41;4216494;83;21058;-87
2022/01/27 03:52:04;;;;;;;28.10;16.05;;;;;;;0.16;100.00;99548.44;4188475;81;163984;-89
2022/01/27 03:58:06;;;;;;;29.75;15.35;;;;;;;0.17;100.00;99539.82;4169636;84;157578;-90
2022/01/27 04:04:08;;;;;;;23.25;14.07;;;;;;;0.17;100.00;99539.82;4116448;84;128733;-90
2022/01/27 04:10:10;;;;;;;27.60;14.55;;;;;;;0.17;100.00;99531.74;4100592;84;21123;-90
2022/01/27 04:16:11;;;;;;;24.35;13.75;;;;;;;0.17;100.00;99531.74;4105700;85;21643;-89
2022/01/27 04:22:13;;;;;;;28.67;15.72;;;;;;;0.10;100.00;99522.69;4031526;86;21593;-90
2022/01/27 04:28:24;;;;;;;26.15;14.85;;;;;;;0.18;100.00;99536.83;4012446;87;21105;-90
2022/01/27 04:34:20;;;;;;;22.87;12.95;;;;;;;0.20;100.00;99530.62;4077793;85;21068;-89
2022/01/27 04:40:29;;;;;;;26.15;14.63;;;;;;;0.25;100.00;99525.12;4087258;85;21254;-92
2022/01/27 04:46:38;;;;;;;29.20;15.60;;;;;;;0.26;100.00;99517.85;4101915;85;21615;-91
2022/01/27 04:52:39;;;;;;;26.25;14.07;;;;;;;0.25;100.00;99506.27;4007379;86;21054;-91
2022/01/27 04:58:38;;;;;;;26.40;13.72;;;;;;;0.23;100.00;99511.71;4061640;86;21110;-90
2022/01/27 05:04:43;;;;;;;27.52;15.70;;;;;;;0.22;100.00;99516.86;4060688;86;21087;-89
2022/01/27 05:10:54;;;;;;;34.73;19.25;;;;;;;0.20;100.00;99527.11;4010251;87;21687;-87
2022/01/27 05:16:48;;;;;;;37.20;21.87;;;;;;;0.16;100.00;99526.89;4013820;87;21124;-89
2022/01/27 05:22:49;;;;;;;46.75;24.10;;;;;;;0.15;100.00;99511.03;4082614;85;21069;-89
2022/01/27 05:28:51;;;;;;;80.28;33.08;;;;;;;0.16;100.00;99517.47;4074411;84;21116;-90
2022/01/27 05:34:54;;;;;;;86.70;36.63;;;;;;;0.14;100.00;99512.95;4055964;86;21175;-90
2022/01/27 05:40:56;;;;;;;43.92;24.45;;;;;;;0.14;100.00;99504.87;4081860;85;21688;-90
2022/01/27 05:46:58;;;;;;;45.50;23.85;;;;;;;0.15;100.00;99508.34;4060743;85;21111;-91
2022/01/27 05:53:00;;;;;;;41.02;22.80;;;;;;;0.17;100.00;99509.67;4101016;85;21099;-89
2022/01/27 05:59:02;;;;;;;44.42;24.65;;;;;;;0.20;100.00;99498.84;4093409;85;21036;-88
2022/01/27 06:05:04;;;;;;;47.27;24.40;;;;;;;0.24;100.00;99490.41;4099761;85;21107;-90
2022/01/27 06:11:06;;;;;;;41.50;22.48;;;;;;;0.24;100.00;99483.14;4092699;85;21070;-89
2022/01/27 06:17:07;;;;;;;37.28;20.60;;;;;;;0.23;100.00;99470.79;4056799;85;21083;-90
2022/01/27 06:23:09;;;;;;;33.70;18.98;;;;;;;0.22;100.00;99457.63;4070539;85;21083;-90
2022/01/27 06:29:11;;;;;;;33.13;19.17;;;;;;;0.21;100.00;99456.81;4068811;85;21088;-91
2022/01/27 06:35:28;;;;;;;36.10;19.27;;;;;;;0.24;100.00;99433.88;4104430;85;21115;-90
2022/01/27 06:41:30;;;;;;;40.12;21.35;;;;;;;0.22;100.00;99429.35;4018474;87;21127;-90
2022/01/27 06:47:32;;;;;;;37.00;19.17;;;;;;;0.26;100.00;99418.22;4066326;85;21131;-91
2022/01/27 06:53:35;;;;;;;33.23;18.27;;;;;;;0.27;100.00;99430.61;4080523;85;21078;-90
2022/01/27 06:59:37;;;;;;;35.15;18.90;;;;;;;0.31;100.00;99406.02;4082737;85;22222;-91
2022/01/27 07:05:39;;;;;;;37.48;20.55;;;;;;;0.33;100.00;99390.38;4067829;85;21314;-90
2022/01/27 07:11:41;;;;;;;45.33;19.15;;;;;;;0.36;100.00;99397.85;4088243;85;21140;-91
2022/01/27 07:17:42;;;;;;;38.73;20.45;;;;;;;0.40;100.00;99392.11;4066349;85;21169;-90
2022/01/27 07:23:44;;;;;;;38.13;19.10;;;;;;;0.49;100.00;99380.88;4068290;85;21136;-89
2022/01/27 07:29:45;;;;;;;34.27;19.50;;;;;;;0.55;100.00;99391.83;4088570;85;21102;-91
2022/01/27 07:35:47;;;;;;;35.65;19.23;;;;;;;0.60;100.00;99388.47;4094175;85;21138;-90
2022/01/27 07:41:49;;;;;;;36.50;19.07;;;;;;;0.64;100.00;99385.44;4098295;84;21961;-90
2022/01/27 07:47:52;;;;;;;37.58;19.35;;;;;;;0.68;100.00;99378.34;4014047;87;21192;-90
2022/01/27 07:53:54;;;;;;;51.50;23.87;;;;;;;0.71;100.00;99387.70;4075512;84;22227;-90
2022/01/27 07:59:55;;;;;;;46.35;23.55;;;;;;;0.74;100.00;99360.97;4080077;85;21060;-90
2022/01/27 08:05:56;;;;;;;49.60;25.40;;;;;;;0.83;100.00;99360.49;4057330;86;21090;-91
2022/01/27 08:11:58;;;;;;;52.00;25.45;;;;;;;0.97;100.00;99351.05;3997950;86;22255;-90
2022/01/27 08:18:00;;;;;;;46.28;25.43;;;;;;;1.14;100.00;99340.41;4061653;85;21075;-90
2022/01/27 08:24:01;;;;;;;57.98;27.85;;;;;;;1.26;100.00;99332.57;4044681;85;21033;-90
2022/01/27 08:30:05;;;;;;;54.83;26.80;;;;;;;1.38;100.00;99331.46;3960700;87;21175;-91
2022/01/27 08:36:08;;;;;;;52.50;26.77;;;;;;;1.59;100.00;99325.28;4090831;85;21063;-91
2022/01/27 08:42:10;;;;;;;56.42;27.85;;;;;;;1.58;100.00;99303.43;4076200;85;21452;-91
2022/01/27 08:48:13;;;;;;;58.68;29.20;;;;;;;1.69;100.00;99290.50;4047945;86;21675;-91
2022/01/27 08:54:15;;;;;;;58.58;29.67;;;;;;;1.77;100.00;99291.07;4008730;86;21076;-90
2022/01/27 09:00:19;;;;;;;53.78;27.05;;;;;;;1.91;100.00;99306.62;4073929;85;21130;-90
2022/01/27 09:06:21;;;;;;;52.70;25.60;;;;;;;2.02;100.00;99305.24;4088146;85;21723;-90
2022/01/27 09:12:23;;;;;;;49.15;24.47;;;;;;;2.14;99.92;99304.66;4018101;86;21053;-91
2022/01/27 09:18:25;;;;;;;47.65;24.90;;;;;;;2.26;99.72;99307.02;4058963;85;21049;-90
2022/01/27 09:24:36;;;;;;;48.05;25.75;;;;;;;2.31;99.37;99313.63;4080793;85;21094;-91
2022/01/27 09:30:31;;;;;;;50.12;24.25;;;;;;;2.42;99.58;99307.37;4087458;85;21112;-91
2022/01/27 09:36:35;;;;;;;57.60;27.93;;;;;;;2.67;99.30;99297.98;4065455;85;21084;-91
2022/01/27 09:42:38;;;;;;;56.13;27.42;;;;;;;2.68;98.87;99290.11;4050534;86;21945;-90
2022/01/27 09:48:44;;;;;;;54.88;27.30;;;;;;;2.55;97.97;99276.16;4045919;86;21137;-91
2022/01/27 09:54:46;;;;;;;44.00;22.00;;;;;;;2.53;98.11;99277.06;4045321;85;21788;-89
2022/01/27 10:00:48;;;;;;;53.17;25.00;;;;;;;2.52;97.99;99261.94;4000780;86;21088;-91
2022/01/27 10:07:00;;;;;;;55.60;25.75;;;;;;;2.49;97.92;99257.16;4053269;85;21035;-92
2022/01/27 10:13:11;;;;;;;47.65;23.18;;;;;;;2.48;97.60;99233.16;4090010;85;21065;-91
2022/01/27 10:19:26;;;;;;;;;;;;;;;;;;;;;
2022/01/27 10:25:33;;;;;;;45.33;22.13;;;;;;;2.43;97.52;99199.53;4076174;85;21954;-92
2022/01/27 10:31:52;;;;;;;;;;;;;;;;;;;;;
2022/01/27 10:45:08;;;;;;;;;;;;;;;;;;;;;
2022/01/27 10:51:19;;;;;;;;;;;;;;;;;;;;;
2022/01/27 10:57:27;;;;;;;42.78;20.48;;;;;;;2.53;96.75;99132.48;3810431;90;21162;-92
2022/01/27 11:03:51;;;;;;;39.85;18.77;;;;;;;2.47;96.35;99112.14;3830931;90;21561;-93
2022/01/27 11:09:58;;;;;;;34.40;17.98;;;;;;;2.39;96.21;99117.54;3823202;90;21635;-91
2022/01/27 11:16:04;;;;;;;32.70;16.20;;;;;;;2.24;95.62;99135.58;3779747;90;21632;-92
2022/01/27 11:28:53;;;;;;;26.75;13.83;;;;;;;2.04;95.61;99112.67;4041140;85;21055;-90
2022/01/27 11:34:56;;;;;;;21.42;11.97;;;;;;;2.09;95.49;99103.62;4021461;86;21571;-91
2022/01/27 11:41:01;;;;;;;25.35;13.10;;;;;;;2.12;95.12;99094.87;4047683;85;21841;-91
2022/01/27 11:47:15;;;;;;;22.25;11.55;;;;;;;2.12;94.81;99086.78;4016944;84;21050;-90
2022/01/27 11:54:04;;;;;;;;;;;;;;;;;;;;;
2022/01/27 12:00:26;;;;;;;22.48;12.00;;;;;;;2.01;93.98;99073.34;3893084;88;21688;-91
2022/01/27 12:06:36;;;;;;;;;;;;;;;;;;;;;
2022/01/27 12:12:44;;;;;;;28.92;12.98;;;;;;;1.93;94.22;99064.72;3935661;88;21812;-91
2022/01/27 12:19:33;;;;;;;;;;;;;;;;;;;;;
2022/01/27 12:26:05;;;;;;;;;;;;;;;;;;;;;
2022/01/27 12:32:43;;;;;;;;;;;;;;;;;;;;;
2022/01/27 12:39:21;;;;;;;;;;;;;;;;;;;;;
2022/01/27 12:45:19;;;;;;;32.10;16.05;;;;;;;1.98;93.26;98987.05;4058884;85;21525;-92
2022/01/27 12:51:40;;;;;;;;;;;;;;;;;;;;;
2022/01/27 12:58:16;;;;;;;35.28;18.77;;;;;;;1.94;93.07;98962.36;3953073;87;21384;-92
2022/01/27 13:04:50;;;;;;;;;;;;;;;;;;;;;
2022/01/27 13:11:21;;;;;;;;;;;;;;;;;;;;;
2022/01/27 13:17:47;;;;;;;;;;;;;;;;;;;;;
2022/01/27 13:24:15;;;;;;;41.05;18.25;;;;;;;2.13;92.89;98926.36;4153094;83;21727;-92
2022/01/27 13:30:35;;;;;;;41.63;19.25;;;;;;;2.14;92.75;98917.94;4154805;84;21134;-93
2022/01/27 13:36:50;;;;;;;31.48;17.00;;;;;;;2.11;92.48;98905.63;4103679;84;21096;-92
2022/01/27 13:43:04;;;;;;;32.67;15.58;;;;;;;2.08;92.35;98911.67;4133858;82;21093;-92
2022/01/27 13:56:08;;;;;;;34.20;16.65;;;;;;;1.97;92.35;98899.08;4054305;84;21231;-92
2022/01/27 14:09:40;;;;;;;;;;;;;;;;;;;;;
2022/01/27 14:16:18;;;;;;;37.55;18.70;;;;;;;1.88;92.20;98883.42;4033398;85;21537;-92
2022/01/27 14:28:59;;;;;;;;;;;;;;;;;;;;;
2022/01/27 14:35:06;;;;;;;74.47;33.08;;;;;;;1.80;92.09;98883.46;4078563;84;21106;-92
2022/01/27 14:41:12;;;;;;;42.83;22.60;;;;;;;1.76;92.16;98890.05;4094414;85;21149;-91
2022/01/27 14:47:16;;;;;;;44.95;21.50;;;;;;;1.72;91.94;98893.16;4085758;85;21113;-92
2022/01/27 14:53:39;;;;;;;;;;;;;;;;;;;;;
2022/01/27 14:59:45;;;;;;;50.55;22.35;;;;;;;1.64;92.08;98885.86;4098704;84;21085;-92
2022/01/27 15:05:45;;;;;;;46.15;22.50;;;;;;;1.61;92.11;98887.27;4084093;85;21098;-92
2022/01/27 15:12:15;;;;;;;46.13;22.70;;;;;;;1.60;92.23;98875.45;4083210;85;21542;-92
2022/01/27 15:18:59;;;;;;;37.53;20.15;;;;;;;1.53;92.32;98869.19;3880079;89;21127;-92
2022/01/27 15:25:34;;;;;;;;;;;;;;;;;;;;;
2022/01/27 15:31:48;;;;;;;52.00;26.00;;;;;;;1.19;92.71;98882.67;3892075;87;21300;-91
2022/01/27 15:37:54;;;;;;;53.50;25.50;;;;;;;1.04;93.14;98878.30;4110857;82;21038;-91
2022/01/27 15:43:59;;;;;;;59.95;28.62;;;;;;;0.93;93.61;98870.28;4077126;85;21072;-91
2022/01/27 15:50:12;;;;;;;58.55;28.30;;;;;;;0.84;93.97;98881.06;4068085;85;21057;-92
2022/01/27 15:56:17;;;;;;;66.22;31.95;;;;;;;0.77;94.20;98874.52;4088680;85;21140;-92
2022/01/27 16:02:23;;;;;;;70.80;34.00;;;;;;;0.71;94.59;98870.39;4068908;86;21553;-92
2022/01/27 16:08:32;;;;;;;72.85;33.92;;;;;;;0.67;94.88;98864.85;4053378;85;21075;-92
2022/01/27 16:14:47;;;;;;;75.15;35.78;;;;;;;0.65;94.94;98858.17;4053210;85;21696;-92
2022/01/27 16:20:48;;;;;;;80.67;36.93;;;;;;;0.60;95.18;98847.53;4084444;85;21106;-92
2022/01/27 16:26:49;;;;;;;79.72;34.25;;;;;;;0.54;95.34;98842.86;4066354;85;21105;-91
2022/01/27 16:32:51;;;;;;;78.35;34.92;;;;;;;0.49;95.63;98836.81;4079390;85;21107;-93
2022/01/27 16:39:02;;;;;;;115.80;50.73;;;;;;;0.47;95.65;98848.47;4093897;85;21047;-92
2022/01/27 16:45:10;;;;;;;111.45;53.98;;;;;;;0.43;96.04;98855.02;4080704;84;21509;-91
2022/01/27 16:51:18;;;;;;;87.65;42.35;;;;;;;0.40;96.22;98860.23;4062244;84;21550;-91
2022/01/27 16:57:42;;;;;;;91.37;42.90;;;;;;;0.36;96.22;98846.59;4100092;84;21737;-93
2022/01/27 17:03:36;;;;;;;83.90;39.08;;;;;;;0.34;96.62;98836.70;4093783;85;21077;-91
2022/01/27 17:09:47;;;;;;;81.37;39.38;;;;;;;0.33;96.68;98832.98;4055245;85;21541;-92
2022/01/27 17:16:05;;;;;;;76.67;37.48;;;;;;;0.31;96.54;98831.14;4030683;86;21092;-93
2022/01/27 17:22:14;;;;;;;68.52;33.10;;;;;;;0.27;96.81;98836.92;4029992;86;21079;-93
2022/01/27 17:28:36;;;;;;;;;;;;;;;;;;;;;
2022/01/27 17:34:32;;;;;;;65.42;31.95;;;;;;;0.25;97.07;98829.70;3994907;87;21118;-92
2022/01/27 17:40:45;;;;;;;68.40;33.58;;;;;;;0.24;97.18;98824.86;3970982;83;9999696;-92
2022/01/27 17:47:02;;;;;;;;;;;;;;;;;;;;;
2022/01/27 17:53:05;;;;;;;;;;;;;;;;;;;;;
2022/01/27 17:59:17;;;;;;;;;;;;;;;;;;;;;
2022/01/27 18:12:06;;;;;;;;;;;;;;;;;;;;;
2022/01/27 18:31:47;;;;;;;;;;;;;;;;;;;;;
2022/01/27 18:38:06;;;;;;;;;;;;;;;;;;;;;
2022/01/27 18:51:08;;;;;;;;;;;;;;;;;;;;;
2022/01/27 18:57:50;;;;;;;;;;;;;;;;;;;;;
2022/01/27 19:10:13;;;;;;;;;;;;;;;;;;;;;
2022/01/27 19:16:25;;;;;;;;;;;;;;;;;;;;;
2022/01/27 19:22:23;;;;;;;40.08;20.35;;;;;;;0.48;100.00;98785.41;3756257;92;21339;-91
2022/01/27 19:28:27;;;;;;;44.05;20.77;;;;;;;0.48;100.00;98787.56;3827265;91;21219;-92
2022/01/27 19:34:35;;;;;;;43.35;21.87;;;;;;;0.49;100.00;98785.09;3879625;90;21514;-92
2022/01/27 19:40:36;;;;;;;39.20;20.43;;;;;;;0.51;100.00;98778.84;3776920;89;10000337;-92
2022/01/27 19:46:40;;;;;;;38.70;19.13;;;;;;;0.49;100.00;98769.48;4070015;84;21088;-91
2022/01/27 19:52:52;;;;;;;36.98;19.02;;;;;;;0.51;100.00;98774.01;4086731;84;21176;-91
2022/01/27 19:59:01;;;;;;;39.23;20.00;;;;;;;0.53;100.00;98761.83;3917435;86;21198;-92
2022/01/27 20:05:16;;;;;;;;;;;;;;;;;;;;;
2022/01/27 20:11:12;;;;;;;43.92;20.30;;;;;;;0.53;100.00;98758.34;4095815;84;21172;-92
2022/01/27 20:17:21;;;;;;;42.27;20.17;;;;;;;0.56;100.00;98754.47;4096619;84;21708;-92
2022/01/27 20:23:24;;;;;;;37.28;19.40;;;;;;;0.59;100.00;98751.69;4119259;84;21065;-92
2022/01/27 20:29:26;;;;;;;43.00;19.90;;;;;;;0.61;100.00;98744.86;4099023;85;21133;-92
2022/01/27 20:35:33;;;;;;;43.97;21.27;;;;;;;0.64;100.00;98742.11;4086115;84;21066;-94
2022/01/27 20:41:35;;;;;;;47.27;21.97;;;;;;;0.66;100.00;98726.43;4112224;84;21684;-92
2022/01/27 20:47:39;;;;;;;52.38;25.82;;;;;;;0.66;100.00;98731.81;4109871;84;21078;-92
2022/01/27 20:53:53;;;;;;;47.67;23.62;;;;;;;0.69;100.00;98718.48;4093789;84;21046;-91
2022/01/27 20:59:52;;;;;;;41.40;19.77;;;;;;;0.72;100.00;98733.23;4124659;84;21587;-92
2022/01/27 21:06:06;;;;;;;;;;;;;;;;;;;;;
2022/01/27 21:12:06;;;;;;;43.13;21.68;;;;;;;0.76;100.00;98722.05;4103982;84;21069;-92
2022/01/27 21:18:27;;;;;;;;;;;;;;;;;;;;;
2022/01/27 21:24:30;;;;;;;;;;;;;;;;;;;;;
2022/01/27 21:30:45;;;;;;;;;;;;;;;;;;;;;
2022/01/27 21:36:59;;;;;;;;;;;;;;;;;;;;;
2022/01/27 21:43:08;;;;;;;22.00;13.28;;;;;;;1.22;100.00;98686.55;4070444;84;21125;-92
2022/01/27 21:49:26;;;;;;;;;;;;;;;;;;;;;
2022/01/27 21:55:23;;;;;;;22.02;12.43;;;;;;;1.39;100.00;98691.89;4011245;85;21143;-92
2022/01/27 22:01:53;;;;;;;25.68;13.75;;;;;;;1.46;100.00;98694.10;4113076;84;21029;-92
2022/01/27 22:08:00;;;;;;;31.52;15.18;;;;;;;1.54;100.00;98694.63;4113295;84;21124;-94
2022/01/27 22:14:23;;;;;;;;;;;;;;;;;;;;;
2022/01/27 22:20:39;;;;;;;;;;;;;;;;;;;;;
2022/01/27 22:26:45;;;;;;;36.53;16.57;;;;;;;1.59;100.00;98660.73;3879970;87;21151;-92
2022/01/27 22:33:12;;;;;;;;;;;;;;;;;;;;;
2022/01/27 22:39:28;;;;;;;;;;;;;;;;;;;;;
2022/01/27 22:45:47;;;;;;;;;;;;;;;;;;;;;
2022/01/27 22:52:01;;;;;;;;;;;;;;;;;;;;;
2022/01/27 22:58:03;;;;;;;27.70;13.68;;;;;;;1.50;100.00;98662.11;4088433;84;21654;-92
2022/01/27 23:04:28;;;;;;;27.85;14.00;;;;;;;1.56;100.00;98662.73;4109707;84;21161;-92
2022/01/27 23:10:42;;;;;;;29.42;14.70;;;;;;;1.55;100.00;98632.26;4103528;84;21101;-92
2022/01/27 23:23:45;;;;;;;30.32;15.10;;;;;;;1.57;100.00;98631.94;3766337;92;21907;-92
2022/01/27 23:37:04;;;;;;;;;;;;;;;;;;;;;
2022/01/27 23:50:19;;;;;;;31.40;14.30;;;;;;;1.46;100.00;98605.89;3486040;97;22475;-93
